sensor_id;sensor_type;location;lat;lon;timestamp;P1;durP1;ratioP1;P2;durP2;ratioP2
75680;SDS011;64294;49.176;16.626;2024-02-15T00:01:26;26.77;;;15.45;;
75680;SDS011;64294;49.176;16.626;2024-02-15T00:03:52;28.92;;;16.20;;
75680;SDS011;64294;49.176;16.626;2024-02-15T00:06:17;28.95;;;16.52;;
75680;SDS011;64294;49.176;16.626;2024-02-15T00:08:44;26.23;;;15.07;;
75680;SDS011;64294;49.176;16.626;2024-02-15T00:11:10;27.05;;;15.05;;
75680;SDS011;64294;49.176;16.626;2024-02-15T00:13:35;25.63;;;15.00;;
75680;SDS011;64294;49.176;16.626;2024-02-15T00:16:01;27.63;;;15.43;;
75680;SDS011;64294;49.176;16.626;2024-02-15T00:18:27;33.22;;;16.77;;
75680;SDS011;64294;49.176;16.626;2024-02-15T00:20:52;29.15;;;14.52;;
75680;SDS011;64294;49.176;16.626;2024-02-15T00:23:17;27.33;;;15.18;;
75680;SDS011;64294;49.176;16.626;2024-02-15T00:25:43;26.40;;;14.57;;
75680;SDS011;64294;49.176;16.626;2024-02-15T00:28:10;32.28;;;16.10;;
75680;SDS011;64294;49.176;16.626;2024-02-15T00:30:38;29.40;;;14.98;;
75680;SDS011;64294;49.176;16.626;2024-02-15T00:33:04;27.95;;;16.10;;
75680;SDS011;64294;49.176;16.626;2024-02-15T00:35:29;25.08;;;15.35;;
75680;SDS011;64294;49.176;16.626;2024-02-15T00:37:54;25.67;;;16.10;;
75680;SDS011;64294;49.176;16.626;2024-02-15T00:40:20;28.65;;;15.15;;
75680;SDS011;64294;49.176;16.626;2024-02-15T00:42:46;26.73;;;14.90;;
75680;SDS011;64294;49.176;16.626;2024-02-15T00:45:12;31.30;;;16.52;;
75680;SDS011;64294;49.176;16.626;2024-02-15T00:47:37;27.65;;;15.50;;
75680;SDS011;64294;49.176;16.626;2024-02-15T00:50:03;31.67;;;15.88;;
75680;SDS011;64294;49.176;16.626;2024-02-15T00:52:29;26.77;;;14.75;;
75680;SDS011;64294;49.176;16.626;2024-02-15T00:54:55;27.30;;;15.95;;
75680;SDS011;64294;49.176;16.626;2024-02-15T00:57:21;28.02;;;15.27;;
75680;SDS011;64294;49.176;16.626;2024-02-15T00:59:46;29.92;;;15.77;;
75680;SDS011;64294;49.176;16.626;2024-02-15T01:02:12;29.40;;;15.65;;
75680;SDS011;64294;49.176;16.626;2024-02-15T01:04:38;29.35;;;15.95;;
75680;SDS011;64294;49.176;16.626;2024-02-15T01:07:04;31.88;;;15.80;;
75680;SDS011;64294;49.176;16.626;2024-02-15T01:09:29;29.83;;;15.18;;
75680;SDS011;64294;49.176;16.626;2024-02-15T01:11:55;29.13;;;15.88;;
75680;SDS011;64294;49.176;16.626;2024-02-15T01:14:20;28.08;;;15.40;;
75680;SDS011;64294;49.176;16.626;2024-02-15T01:16:46;27.33;;;15.45;;
75680;SDS011;64294;49.176;16.626;2024-02-15T01:19:12;29.48;;;15.20;;
75680;SDS011;64294;49.176;16.626;2024-02-15T01:21:37;28.42;;;15.85;;
75680;SDS011;64294;49.176;16.626;2024-02-15T01:24:03;26.70;;;14.65;;
75680;SDS011;64294;49.176;16.626;2024-02-15T01:26:31;26.40;;;14.82;;
75680;SDS011;64294;49.176;16.626;2024-02-15T01:28:57;27.95;;;15.75;;
75680;SDS011;64294;49.176;16.626;2024-02-15T01:31:22;31.35;;;16.23;;
75680;SDS011;64294;49.176;16.626;2024-02-15T01:33:48;32.15;;;15.98;;
75680;SDS011;64294;49.176;16.626;2024-02-15T01:36:16;27.17;;;14.95;;
75680;SDS011;64294;49.176;16.626;2024-02-15T01:38:42;27.67;;;16.25;;
75680;SDS011;64294;49.176;16.626;2024-02-15T01:41:08;30.45;;;16.10;;
75680;SDS011;64294;49.176;16.626;2024-02-15T01:43:35;29.95;;;15.35;;
75680;SDS011;64294;49.176;16.626;2024-02-15T01:46:01;29.77;;;15.98;;
75680;SDS011;64294;49.176;16.626;2024-02-15T01:48:33;30.83;;;16.00;;
75680;SDS011;64294;49.176;16.626;2024-02-15T01:50:58;27.17;;;16.05;;
75680;SDS011;64294;49.176;16.626;2024-02-15T01:53:25;28.73;;;16.15;;
75680;SDS011;64294;49.176;16.626;2024-02-15T01:55:52;28.92;;;15.98;;
75680;SDS011;64294;49.176;16.626;2024-02-15T01:58:20;31.55;;;16.60;;
75680;SDS011;64294;49.176;16.626;2024-02-15T02:00:46;29.10;;;15.45;;
75680;SDS011;64294;49.176;16.626;2024-02-15T02:03:13;27.65;;;15.55;;
75680;SDS011;64294;49.176;16.626;2024-02-15T02:05:40;28.15;;;15.82;;
75680;SDS011;64294;49.176;16.626;2024-02-15T02:08:06;33.13;;;16.58;;
75680;SDS011;64294;49.176;16.626;2024-02-15T02:10:37;29.77;;;16.02;;
75680;SDS011;64294;49.176;16.626;2024-02-15T02:13:03;28.70;;;15.52;;
75680;SDS011;64294;49.176;16.626;2024-02-15T02:15:29;26.70;;;15.13;;
75680;SDS011;64294;49.176;16.626;2024-02-15T02:17:56;30.15;;;15.45;;
75680;SDS011;64294;49.176;16.626;2024-02-15T02:20:24;26.05;;;15.13;;
75680;SDS011;64294;49.176;16.626;2024-02-15T02:22:50;28.80;;;14.25;;
75680;SDS011;64294;49.176;16.626;2024-02-15T02:25:20;26.60;;;14.55;;
75680;SDS011;64294;49.176;16.626;2024-02-15T02:27:46;25.73;;;14.13;;
75680;SDS011;64294;49.176;16.626;2024-02-15T02:30:13;26.23;;;14.20;;
75680;SDS011;64294;49.176;16.626;2024-02-15T02:32:44;26.58;;;13.82;;
75680;SDS011;64294;49.176;16.626;2024-02-15T02:35:11;27.10;;;14.82;;
75680;SDS011;64294;49.176;16.626;2024-02-15T02:37:37;26.25;;;14.05;;
75680;SDS011;64294;49.176;16.626;2024-02-15T02:40:04;25.98;;;14.57;;
75680;SDS011;64294;49.176;16.626;2024-02-15T02:42:35;28.00;;;14.68;;
75680;SDS011;64294;49.176;16.626;2024-02-15T02:45:18;31.27;;;15.75;;
75680;SDS011;64294;49.176;16.626;2024-02-15T02:47:45;30.88;;;15.73;;
75680;SDS011;64294;49.176;16.626;2024-02-15T02:50:12;32.55;;;15.52;;
75680;SDS011;64294;49.176;16.626;2024-02-15T02:52:38;30.63;;;15.65;;
75680;SDS011;64294;49.176;16.626;2024-02-15T02:55:04;36.03;;;17.48;;
75680;SDS011;64294;49.176;16.626;2024-02-15T02:57:33;33.92;;;17.50;;
75680;SDS011;64294;49.176;16.626;2024-02-15T03:00:01;32.33;;;16.98;;
75680;SDS011;64294;49.176;16.626;2024-02-15T03:02:32;33.20;;;16.67;;
75680;SDS011;64294;49.176;16.626;2024-02-15T03:04:59;34.05;;;17.05;;
75680;SDS011;64294;49.176;16.626;2024-02-15T03:07:28;30.27;;;16.10;;
75680;SDS011;64294;49.176;16.626;2024-02-15T03:09:53;32.50;;;17.05;;
75680;SDS011;64294;49.176;16.626;2024-02-15T03:12:19;33.17;;;16.88;;
75680;SDS011;64294;49.176;16.626;2024-02-15T03:14:44;37.30;;;15.70;;
75680;SDS011;64294;49.176;16.626;2024-02-15T03:17:10;29.60;;;16.75;;
75680;SDS011;64294;49.176;16.626;2024-02-15T03:19:36;31.38;;;15.68;;
75680;SDS011;64294;49.176;16.626;2024-02-15T03:22:01;27.02;;;15.45;;
75680;SDS011;64294;49.176;16.626;2024-02-15T03:24:26;32.13;;;16.27;;
75680;SDS011;64294;49.176;16.626;2024-02-15T03:26:52;29.88;;;16.15;;
75680;SDS011;64294;49.176;16.626;2024-02-15T03:29:20;30.55;;;16.13;;
75680;SDS011;64294;49.176;16.626;2024-02-15T03:31:46;30.48;;;16.73;;
75680;SDS011;64294;49.176;16.626;2024-02-15T03:34:13;28.48;;;16.30;;
75680;SDS011;64294;49.176;16.626;2024-02-15T03:36:40;31.48;;;16.17;;
75680;SDS011;64294;49.176;16.626;2024-02-15T03:39:06;27.92;;;16.35;;
75680;SDS011;64294;49.176;16.626;2024-02-15T03:41:33;25.17;;;15.45;;
75680;SDS011;64294;49.176;16.626;2024-02-15T03:43:59;34.40;;;15.80;;
75680;SDS011;64294;49.176;16.626;2024-02-15T03:46:25;28.27;;;16.10;;
75680;SDS011;64294;49.176;16.626;2024-02-15T03:48:51;31.15;;;15.85;;
75680;SDS011;64294;49.176;16.626;2024-02-15T03:51:17;41.17;;;18.35;;
75680;SDS011;64294;49.176;16.626;2024-02-15T03:53:48;43.53;;;19.50;;
75680;SDS011;64294;49.176;16.626;2024-02-15T03:56:13;34.13;;;17.95;;
75680;SDS011;64294;49.176;16.626;2024-02-15T03:58:39;36.17;;;17.73;;
75680;SDS011;64294;49.176;16.626;2024-02-15T04:01:04;39.00;;;17.90;;
75680;SDS011;64294;49.176;16.626;2024-02-15T04:03:32;34.15;;;16.95;;
75680;SDS011;64294;49.176;16.626;2024-02-15T04:05:59;28.80;;;16.23;;
75680;SDS011;64294;49.176;16.626;2024-02-15T04:08:25;29.80;;;16.65;;
75680;SDS011;64294;49.176;16.626;2024-02-15T04:10:52;29.10;;;16.58;;
75680;SDS011;64294;49.176;16.626;2024-02-15T04:13:18;30.77;;;17.27;;
75680;SDS011;64294;49.176;16.626;2024-02-15T04:15:43;27.10;;;15.32;;
75680;SDS011;64294;49.176;16.626;2024-02-15T04:18:12;28.20;;;15.93;;
75680;SDS011;64294;49.176;16.626;2024-02-15T04:20:39;25.90;;;15.05;;
75680;SDS011;64294;49.176;16.626;2024-02-15T04:23:09;30.15;;;15.82;;
75680;SDS011;64294;49.176;16.626;2024-02-15T04:25:38;27.55;;;15.68;;
75680;SDS011;64294;49.176;16.626;2024-02-15T04:28:04;28.38;;;15.60;;
75680;SDS011;64294;49.176;16.626;2024-02-15T04:30:29;32.47;;;16.00;;
75680;SDS011;64294;49.176;16.626;2024-02-15T04:32:55;29.05;;;15.48;;
75680;SDS011;64294;49.176;16.626;2024-02-15T04:35:21;29.73;;;15.98;;
75680;SDS011;64294;49.176;16.626;2024-02-15T04:37:47;28.77;;;15.85;;
75680;SDS011;64294;49.176;16.626;2024-02-15T04:40:14;25.33;;;15.35;;
75680;SDS011;64294;49.176;16.626;2024-02-15T04:42:40;26.38;;;15.38;;
75680;SDS011;64294;49.176;16.626;2024-02-15T04:45:08;30.63;;;15.68;;
75680;SDS011;64294;49.176;16.626;2024-02-15T04:47:36;33.45;;;16.90;;
75680;SDS011;64294;49.176;16.626;2024-02-15T04:50:02;28.00;;;16.17;;
75680;SDS011;64294;49.176;16.626;2024-02-15T04:52:28;25.85;;;15.32;;
75680;SDS011;64294;49.176;16.626;2024-02-15T04:54:54;27.75;;;16.02;;
75680;SDS011;64294;49.176;16.626;2024-02-15T04:57:20;29.38;;;16.48;;
75680;SDS011;64294;49.176;16.626;2024-02-15T04:59:45;27.58;;;16.33;;
75680;SDS011;64294;49.176;16.626;2024-02-15T05:02:13;30.63;;;16.55;;
75680;SDS011;64294;49.176;16.626;2024-02-15T05:04:39;27.98;;;16.00;;
75680;SDS011;64294;49.176;16.626;2024-02-15T05:07:07;28.25;;;15.52;;
75680;SDS011;64294;49.176;16.626;2024-02-15T05:09:33;33.55;;;16.85;;
75680;SDS011;64294;49.176;16.626;2024-02-15T05:11:59;28.40;;;15.95;;
75680;SDS011;64294;49.176;16.626;2024-02-15T05:14:27;32.83;;;17.30;;
75680;SDS011;64294;49.176;16.626;2024-02-15T05:16:54;28.42;;;16.73;;
75680;SDS011;64294;49.176;16.626;2024-02-15T05:19:19;29.55;;;16.52;;
75680;SDS011;64294;49.176;16.626;2024-02-15T05:21:45;32.80;;;16.92;;
75680;SDS011;64294;49.176;16.626;2024-02-15T05:24:15;27.83;;;16.45;;
75680;SDS011;64294;49.176;16.626;2024-02-15T05:26:41;30.30;;;16.80;;
75680;SDS011;64294;49.176;16.626;2024-02-15T05:29:10;27.25;;;15.68;;
75680;SDS011;64294;49.176;16.626;2024-02-15T05:31:36;28.92;;;16.88;;
75680;SDS011;64294;49.176;16.626;2024-02-15T05:34:03;28.45;;;16.65;;
75680;SDS011;64294;49.176;16.626;2024-02-15T05:36:32;28.83;;;16.00;;
75680;SDS011;64294;49.176;16.626;2024-02-15T05:38:58;25.20;;;15.15;;
75680;SDS011;64294;49.176;16.626;2024-02-15T05:41:24;28.83;;;16.48;;
75680;SDS011;64294;49.176;16.626;2024-02-15T05:43:50;27.77;;;15.73;;
75680;SDS011;64294;49.176;16.626;2024-02-15T05:46:18;29.98;;;16.63;;
75680;SDS011;64294;49.176;16.626;2024-02-15T05:48:48;30.58;;;15.32;;
75680;SDS011;64294;49.176;16.626;2024-02-15T05:51:14;35.42;;;17.42;;
75680;SDS011;64294;49.176;16.626;2024-02-15T05:53:40;29.88;;;17.45;;
75680;SDS011;64294;49.176;16.626;2024-02-15T05:56:06;32.75;;;16.83;;
75680;SDS011;64294;49.176;16.626;2024-02-15T05:58:32;29.92;;;17.20;;
75680;SDS011;64294;49.176;16.626;2024-02-15T06:00:59;31.42;;;15.20;;
75680;SDS011;64294;49.176;16.626;2024-02-15T06:03:30;29.63;;;15.88;;
75680;SDS011;64294;49.176;16.626;2024-02-15T06:05:58;26.30;;;15.10;;
75680;SDS011;64294;49.176;16.626;2024-02-15T06:08:28;26.92;;;15.52;;
75680;SDS011;64294;49.176;16.626;2024-02-15T06:10:56;27.95;;;16.08;;
75680;SDS011;64294;49.176;16.626;2024-02-15T06:13:21;29.33;;;16.65;;
75680;SDS011;64294;49.176;16.626;2024-02-15T06:15:48;26.92;;;15.50;;
75680;SDS011;64294;49.176;16.626;2024-02-15T06:18:29;31.45;;;17.38;;
75680;SDS011;64294;49.176;16.626;2024-02-15T06:20:56;29.98;;;17.35;;
75680;SDS011;64294;49.176;16.626;2024-02-15T06:23:25;32.35;;;17.77;;
75680;SDS011;64294;49.176;16.626;2024-02-15T06:25:52;30.83;;;17.90;;
75680;SDS011;64294;49.176;16.626;2024-02-15T06:28:19;31.50;;;18.55;;
75680;SDS011;64294;49.176;16.626;2024-02-15T06:31:04;32.17;;;18.73;;
75680;SDS011;64294;49.176;16.626;2024-02-15T06:33:48;30.67;;;18.30;;
75680;SDS011;64294;49.176;16.626;2024-02-15T06:36:31;35.22;;;19.23;;
75680;SDS011;64294;49.176;16.626;2024-02-15T06:39:15;40.30;;;19.73;;
75680;SDS011;64294;49.176;16.626;2024-02-15T06:42:00;38.63;;;19.88;;
75680;SDS011;64294;49.176;16.626;2024-02-15T06:44:26;36.92;;;20.75;;
75680;SDS011;64294;49.176;16.626;2024-02-15T06:46:52;33.65;;;19.73;;
75680;SDS011;64294;49.176;16.626;2024-02-15T06:49:17;33.40;;;20.35;;
75680;SDS011;64294;49.176;16.626;2024-02-15T06:51:43;33.70;;;19.63;;
75680;SDS011;64294;49.176;16.626;2024-02-15T06:54:08;37.88;;;19.63;;
75680;SDS011;64294;49.176;16.626;2024-02-15T06:56:37;37.20;;;19.92;;
75680;SDS011;64294;49.176;16.626;2024-02-15T06:59:03;36.22;;;20.20;;
75680;SDS011;64294;49.176;16.626;2024-02-15T07:01:28;34.67;;;20.65;;
75680;SDS011;64294;49.176;16.626;2024-02-15T07:03:54;39.30;;;22.23;;
75680;SDS011;64294;49.176;16.626;2024-02-15T07:06:20;45.50;;;22.30;;
75680;SDS011;64294;49.176;16.626;2024-02-15T07:08:46;40.90;;;23.00;;
75680;SDS011;64294;49.176;16.626;2024-02-15T07:11:13;40.40;;;21.63;;
75680;SDS011;64294;49.176;16.626;2024-02-15T07:13:38;44.17;;;24.13;;
75680;SDS011;64294;49.176;16.626;2024-02-15T07:16:09;43.05;;;25.02;;
75680;SDS011;64294;49.176;16.626;2024-02-15T07:18:36;46.72;;;26.25;;
75680;SDS011;64294;49.176;16.626;2024-02-15T07:21:02;47.45;;;25.52;;
75680;SDS011;64294;49.176;16.626;2024-02-15T07:23:33;44.17;;;24.73;;
75680;SDS011;64294;49.176;16.626;2024-02-15T07:25:59;42.22;;;23.38;;
75680;SDS011;64294;49.176;16.626;2024-02-15T07:28:24;36.97;;;22.02;;
75680;SDS011;64294;49.176;16.626;2024-02-15T07:30:54;43.85;;;22.40;;
75680;SDS011;64294;49.176;16.626;2024-02-15T07:33:20;38.53;;;21.58;;
75680;SDS011;64294;49.176;16.626;2024-02-15T07:35:47;38.55;;;22.15;;
75680;SDS011;64294;49.176;16.626;2024-02-15T07:38:15;44.05;;;22.55;;
75680;SDS011;64294;49.176;16.626;2024-02-15T07:40:43;36.88;;;22.75;;
75680;SDS011;64294;49.176;16.626;2024-02-15T07:43:08;34.63;;;21.30;;
75680;SDS011;64294;49.176;16.626;2024-02-15T07:45:35;39.90;;;21.58;;
75680;SDS011;64294;49.176;16.626;2024-02-15T07:48:02;37.35;;;21.52;;
75680;SDS011;64294;49.176;16.626;2024-02-15T07:50:29;36.15;;;20.20;;
75680;SDS011;64294;49.176;16.626;2024-02-15T07:52:55;37.85;;;22.27;;
75680;SDS011;64294;49.176;16.626;2024-02-15T07:55:21;36.60;;;19.50;;
75680;SDS011;64294;49.176;16.626;2024-02-15T07:57:49;34.15;;;20.13;;
75680;SDS011;64294;49.176;16.626;2024-02-15T08:00:15;35.65;;;20.35;;
75680;SDS011;64294;49.176;16.626;2024-02-15T08:02:42;37.40;;;21.42;;
75680;SDS011;64294;49.176;16.626;2024-02-15T08:05:08;36.92;;;20.05;;
75680;SDS011;64294;49.176;16.626;2024-02-15T08:07:42;35.92;;;19.58;;
75680;SDS011;64294;49.176;16.626;2024-02-15T08:10:12;31.90;;;18.73;;
75680;SDS011;64294;49.176;16.626;2024-02-15T08:12:44;29.90;;;18.70;;
75680;SDS011;64294;49.176;16.626;2024-02-15T08:15:11;33.22;;;18.52;;
75680;SDS011;64294;49.176;16.626;2024-02-15T08:17:38;31.77;;;18.85;;
75680;SDS011;64294;49.176;16.626;2024-02-15T08:20:08;30.70;;;18.70;;
75680;SDS011;64294;49.176;16.626;2024-02-15T08:22:35;26.60;;;17.90;;
75680;SDS011;64294;49.176;16.626;2024-02-15T08:25:04;27.60;;;17.67;;
75680;SDS011;64294;49.176;16.626;2024-02-15T08:27:36;30.13;;;18.42;;
75680;SDS011;64294;49.176;16.626;2024-02-15T08:32:38;30.08;;;17.55;;
75680;SDS011;64294;49.176;16.626;2024-02-15T08:35:08;29.23;;;16.67;;
75680;SDS011;64294;49.176;16.626;2024-02-15T08:37:37;27.70;;;16.67;;
75680;SDS011;64294;49.176;16.626;2024-02-15T08:40:04;29.98;;;17.58;;
75680;SDS011;64294;49.176;16.626;2024-02-15T08:42:37;28.58;;;17.55;;
75680;SDS011;64294;49.176;16.626;2024-02-15T08:45:06;27.23;;;15.88;;
75680;SDS011;64294;49.176;16.626;2024-02-15T08:47:38;24.23;;;15.07;;
75680;SDS011;64294;49.176;16.626;2024-02-15T08:50:04;26.08;;;15.25;;
75680;SDS011;64294;49.176;16.626;2024-02-15T08:52:31;27.83;;;15.93;;
75680;SDS011;64294;49.176;16.626;2024-02-15T08:54:56;24.58;;;15.32;;
75680;SDS011;64294;49.176;16.626;2024-02-15T08:57:23;33.05;;;16.58;;
75680;SDS011;64294;49.176;16.626;2024-02-15T08:59:49;26.65;;;16.10;;
75680;SDS011;64294;49.176;16.626;2024-02-15T09:02:16;26.02;;;15.35;;
75680;SDS011;64294;49.176;16.626;2024-02-15T09:04:42;23.92;;;14.88;;
75680;SDS011;64294;49.176;16.626;2024-02-15T09:07:08;21.92;;;13.95;;
75680;SDS011;64294;49.176;16.626;2024-02-15T09:09:34;25.08;;;13.27;;
75680;SDS011;64294;49.176;16.626;2024-02-15T09:12:01;23.45;;;13.43;;
75680;SDS011;64294;49.176;16.626;2024-02-15T09:14:31;26.85;;;14.07;;
75680;SDS011;64294;49.176;16.626;2024-02-15T09:16:57;25.27;;;15.05;;
75680;SDS011;64294;49.176;16.626;2024-02-15T09:19:23;24.63;;;14.57;;
75680;SDS011;64294;49.176;16.626;2024-02-15T09:21:49;30.88;;;15.70;;
75680;SDS011;64294;49.176;16.626;2024-02-15T09:24:14;29.83;;;16.15;;
75680;SDS011;64294;49.176;16.626;2024-02-15T09:26:41;30.40;;;16.48;;
75680;SDS011;64294;49.176;16.626;2024-02-15T09:29:07;27.92;;;17.02;;
75680;SDS011;64294;49.176;16.626;2024-02-15T09:31:33;29.98;;;17.83;;
75680;SDS011;64294;49.176;16.626;2024-02-15T09:34:00;30.95;;;16.15;;
75680;SDS011;64294;49.176;16.626;2024-02-15T09:36:26;26.50;;;15.43;;
75680;SDS011;64294;49.176;16.626;2024-02-15T09:38:53;26.15;;;14.25;;
75680;SDS011;64294;49.176;16.626;2024-02-15T09:41:18;22.42;;;13.50;;
75680;SDS011;64294;49.176;16.626;2024-02-15T09:43:44;23.63;;;13.43;;
75680;SDS011;64294;49.176;16.626;2024-02-15T09:46:09;20.52;;;12.07;;
75680;SDS011;64294;49.176;16.626;2024-02-15T09:48:35;26.85;;;12.93;;
75680;SDS011;64294;49.176;16.626;2024-02-15T09:51:02;20.23;;;11.82;;
75680;SDS011;64294;49.176;16.626;2024-02-15T09:53:29;19.83;;;11.32;;
75680;SDS011;64294;49.176;16.626;2024-02-15T09:55:54;19.70;;;10.93;;
75680;SDS011;64294;49.176;16.626;2024-02-15T09:58:21;19.52;;;11.73;;
75680;SDS011;64294;49.176;16.626;2024-02-15T10:00:50;20.55;;;11.93;;
75680;SDS011;64294;49.176;16.626;2024-02-15T10:03:16;21.02;;;12.05;;
75680;SDS011;64294;49.176;16.626;2024-02-15T10:05:46;17.23;;;11.75;;
75680;SDS011;64294;49.176;16.626;2024-02-15T10:08:14;19.67;;;11.60;;
75680;SDS011;64294;49.176;16.626;2024-02-15T10:10:39;20.20;;;11.57;;
75680;SDS011;64294;49.176;16.626;2024-02-15T10:13:05;22.05;;;12.23;;
75680;SDS011;64294;49.176;16.626;2024-02-15T10:15:34;21.48;;;12.20;;
75680;SDS011;64294;49.176;16.626;2024-02-15T10:18:02;21.13;;;13.50;;
75680;SDS011;64294;49.176;16.626;2024-02-15T10:20:29;20.98;;;13.95;;
75680;SDS011;64294;49.176;16.626;2024-02-15T10:25:23;22.48;;;13.88;;
75680;SDS011;64294;49.176;16.626;2024-02-15T10:27:52;31.38;;;16.75;;
75680;SDS011;64294;49.176;16.626;2024-02-15T10:30:26;26.00;;;15.05;;
75680;SDS011;64294;49.176;16.626;2024-02-15T10:32:52;24.92;;;15.52;;
75680;SDS011;64294;49.176;16.626;2024-02-15T10:35:20;19.50;;;12.77;;
75680;SDS011;64294;49.176;16.626;2024-02-15T10:37:50;20.10;;;11.52;;
75680;SDS011;64294;49.176;16.626;2024-02-15T10:40:20;21.40;;;12.25;;
75680;SDS011;64294;49.176;16.626;2024-02-15T10:42:49;20.50;;;11.10;;
75680;SDS011;64294;49.176;16.626;2024-02-15T10:45:16;25.65;;;11.98;;
75680;SDS011;64294;49.176;16.626;2024-02-15T10:47:45;19.08;;;11.43;;
75680;SDS011;64294;49.176;16.626;2024-02-15T10:50:12;21.00;;;11.50;;
75680;SDS011;64294;49.176;16.626;2024-02-15T10:52:41;18.80;;;10.45;;
75680;SDS011;64294;49.176;16.626;2024-02-15T10:55:13;20.10;;;11.80;;
75680;SDS011;64294;49.176;16.626;2024-02-15T10:57:47;20.92;;;11.05;;
75680;SDS011;64294;49.176;16.626;2024-02-15T11:00:16;20.38;;;11.93;;
75680;SDS011;64294;49.176;16.626;2024-02-15T11:02:50;21.08;;;12.18;;
75680;SDS011;64294;49.176;16.626;2024-02-15T11:05:27;20.90;;;12.88;;
75680;SDS011;64294;49.176;16.626;2024-02-15T11:07:56;21.13;;;11.93;;
75680;SDS011;64294;49.176;16.626;2024-02-15T11:10:22;21.73;;;12.43;;
75680;SDS011;64294;49.176;16.626;2024-02-15T11:12:50;27.33;;;12.90;;
75680;SDS011;64294;49.176;16.626;2024-02-15T11:18:00;21.40;;;13.23;;
75680;SDS011;64294;49.176;16.626;2024-02-15T11:22:58;21.42;;;12.13;;
75680;SDS011;64294;49.176;16.626;2024-02-15T11:25:31;20.45;;;13.00;;
75680;SDS011;64294;49.176;16.626;2024-02-15T11:28:22;23.17;;;13.27;;
75680;SDS011;64294;49.176;16.626;2024-02-15T11:30:50;20.92;;;12.05;;
75680;SDS011;64294;49.176;16.626;2024-02-15T11:33:32;21.65;;;13.18;;
75680;SDS011;64294;49.176;16.626;2024-02-15T11:38:33;21.52;;;12.23;;
75680;SDS011;64294;49.176;16.626;2024-02-15T11:41:00;19.15;;;12.23;;
75680;SDS011;64294;49.176;16.626;2024-02-15T11:46:21;19.50;;;10.02;;
75680;SDS011;64294;49.176;16.626;2024-02-15T11:48:49;20.02;;;11.45;;
75680;SDS011;64294;49.176;16.626;2024-02-15T11:51:28;17.70;;;9.50;;
75680;SDS011;64294;49.176;16.626;2024-02-15T11:54:08;19.80;;;10.52;;
75680;SDS011;64294;49.176;16.626;2024-02-15T11:59:12;15.75;;;9.10;;
75680;SDS011;64294;49.176;16.626;2024-02-15T12:01:44;16.00;;;9.38;;
75680;SDS011;64294;49.176;16.626;2024-02-15T12:04:28;17.08;;;9.88;;
75680;SDS011;64294;49.176;16.626;2024-02-15T12:07:14;16.73;;;9.85;;
75680;SDS011;64294;49.176;16.626;2024-02-15T12:09:59;16.60;;;9.85;;
75680;SDS011;64294;49.176;16.626;2024-02-15T12:12:50;19.40;;;10.02;;
75680;SDS011;64294;49.176;16.626;2024-02-15T12:15:34;15.98;;;10.32;;
75680;SDS011;64294;49.176;16.626;2024-02-15T12:21:03;18.73;;;10.43;;
75680;SDS011;64294;49.176;16.626;2024-02-15T12:23:30;17.75;;;11.00;;
75680;SDS011;64294;49.176;16.626;2024-02-15T12:25:58;18.73;;;11.23;;
75680;SDS011;64294;49.176;16.626;2024-02-15T12:28:25;19.63;;;10.02;;
75680;SDS011;64294;49.176;16.626;2024-02-15T12:30:54;16.65;;;9.90;;
75680;SDS011;64294;49.176;16.626;2024-02-15T12:33:21;15.73;;;9.43;;
75680;SDS011;64294;49.176;16.626;2024-02-15T12:35:46;17.42;;;10.50;;
75680;SDS011;64294;49.176;16.626;2024-02-15T12:38:12;17.77;;;10.35;;
75680;SDS011;64294;49.176;16.626;2024-02-15T12:40:41;16.40;;;10.27;;
75680;SDS011;64294;49.176;16.626;2024-02-15T12:43:08;20.17;;;11.38;;
75680;SDS011;64294;49.176;16.626;2024-02-15T12:45:40;21.77;;;12.32;;
75680;SDS011;64294;49.176;16.626;2024-02-15T12:48:07;21.98;;;12.32;;
75680;SDS011;64294;49.176;16.626;2024-02-15T12:50:34;20.13;;;11.38;;
75680;SDS011;64294;49.176;16.626;2024-02-15T12:53:00;19.20;;;11.45;;
75680;SDS011;64294;49.176;16.626;2024-02-15T12:55:29;20.13;;;12.65;;
75680;SDS011;64294;49.176;16.626;2024-02-15T12:58:14;21.13;;;12.80;;
75680;SDS011;64294;49.176;16.626;2024-02-15T13:00:40;25.35;;;12.52;;
75680;SDS011;64294;49.176;16.626;2024-02-15T13:03:06;18.20;;;11.48;;
75680;SDS011;64294;49.176;16.626;2024-02-15T13:05:35;18.15;;;11.40;;
75680;SDS011;64294;49.176;16.626;2024-02-15T13:08:01;20.60;;;12.07;;
75680;SDS011;64294;49.176;16.626;2024-02-15T13:10:29;21.92;;;12.57;;
75680;SDS011;64294;49.176;16.626;2024-02-15T13:12:55;21.73;;;13.27;;
75680;SDS011;64294;49.176;16.626;2024-02-15T13:15:21;24.77;;;16.90;;
75680;SDS011;64294;49.176;16.626;2024-02-15T13:17:52;22.05;;;12.80;;
75680;SDS011;64294;49.176;16.626;2024-02-15T13:20:21;22.42;;;13.15;;
75680;SDS011;64294;49.176;16.626;2024-02-15T13:25:37;22.65;;;13.07;;
75680;SDS011;64294;49.176;16.626;2024-02-15T13:28:04;22.30;;;14.30;;
75680;SDS011;64294;49.176;16.626;2024-02-15T13:30:30;20.60;;;11.90;;
75680;SDS011;64294;49.176;16.626;2024-02-15T13:32:56;22.23;;;15.00;;
75680;SDS011;64294;49.176;16.626;2024-02-15T13:35:22;23.85;;;13.55;;
75680;SDS011;64294;49.176;16.626;2024-02-15T13:37:49;19.45;;;11.02;;
75680;SDS011;64294;49.176;16.626;2024-02-15T13:40:17;20.85;;;11.45;;
75680;SDS011;64294;49.176;16.626;2024-02-15T13:42:45;20.80;;;12.27;;
75680;SDS011;64294;49.176;16.626;2024-02-15T13:45:57;20.23;;;12.18;;
75680;SDS011;64294;49.176;16.626;2024-02-15T13:48:06;23.17;;;13.48;;
75680;SDS011;64294;49.176;16.626;2024-02-15T13:50:32;23.08;;;13.02;;
75680;SDS011;64294;49.176;16.626;2024-02-15T13:52:58;20.65;;;12.27;;
75680;SDS011;64294;49.176;16.626;2024-02-15T13:55:24;20.52;;;12.35;;
75680;SDS011;64294;49.176;16.626;2024-02-15T13:57:53;22.85;;;12.85;;
75680;SDS011;64294;49.176;16.626;2024-02-15T14:00:23;21.42;;;13.45;;
75680;SDS011;64294;49.176;16.626;2024-02-15T14:02:57;20.20;;;12.60;;
75680;SDS011;64294;49.176;16.626;2024-02-15T14:05:28;20.45;;;13.02;;
75680;SDS011;64294;49.176;16.626;2024-02-15T14:07:55;23.75;;;13.27;;
75680;SDS011;64294;49.176;16.626;2024-02-15T14:10:28;20.73;;;11.38;;
75680;SDS011;64294;49.176;16.626;2024-02-15T14:12:55;17.33;;;10.82;;
75680;SDS011;64294;49.176;16.626;2024-02-15T14:15:23;19.15;;;11.25;;
75680;SDS011;64294;49.176;16.626;2024-02-15T14:17:49;17.75;;;11.73;;
75680;SDS011;64294;49.176;16.626;2024-02-15T14:20:14;23.00;;;11.45;;
75680;SDS011;64294;49.176;16.626;2024-02-15T14:22:44;22.33;;;12.95;;
75680;SDS011;64294;49.176;16.626;2024-02-15T14:25:24;47.15;;;18.70;;
75680;SDS011;64294;49.176;16.626;2024-02-15T14:27:56;22.17;;;12.00;;
75680;SDS011;64294;49.176;16.626;2024-02-15T14:30:22;23.30;;;12.02;;
75680;SDS011;64294;49.176;16.626;2024-02-15T14:33:06;27.98;;;11.77;;
75680;SDS011;64294;49.176;16.626;2024-02-15T14:35:39;19.05;;;12.18;;
75680;SDS011;64294;49.176;16.626;2024-02-15T14:38:05;19.50;;;12.63;;